createdAt,value
2018-01-11T00:02:13.906Z,29.30
2018-01-11T00:04:41.873Z,48.60
2018-01-11T00:07:09.807Z,30.63
2018-01-11T00:09:37.841Z,39.80
2018-01-11T00:12:05.877Z,26.73
2018-01-11T00:14:33.816Z,33.03
2018-01-11T00:17:01.743Z,27.73
2018-01-11T00:19:29.649Z,28.62
2018-01-11T00:21:57.603Z,27.20
2018-01-11T00:24:25.527Z,26.43
2018-01-11T00:26:53.730Z,27.40
2018-01-11T00:29:21.635Z,30.92
2018-01-11T00:31:49.972Z,31.83
2018-01-11T00:34:17.918Z,25.97
2018-01-11T00:36:45.845Z,27.03
2018-01-11T00:39:13.880Z,33.37
2018-01-11T00:41:41.889Z,25.30
2018-01-11T00:44:09.865Z,31.83
2018-01-11T00:46:37.793Z,30.27
2018-01-11T00:49:05.695Z,33.33
2018-01-11T00:51:33.628Z,28.63
2018-01-11T00:54:01.702Z,28.23
2018-01-11T00:56:29.664Z,26.80
2018-01-11T00:58:57.588Z,42.10
2018-01-11T01:01:25.501Z,52.50
2018-01-11T01:03:53.521Z,31.97
2018-01-11T01:06:21.541Z,25.83
2018-01-11T01:08:49.734Z,23.33
2018-01-11T01:11:17.705Z,27.67
2018-01-11T01:13:45.625Z,33.43
2018-01-11T01:16:13.775Z,27.67
2018-01-11T01:18:41.694Z,23.23
2018-01-11T01:21:10.012Z,25.93
2018-01-11T01:23:38.216Z,27.93
2018-01-11T01:26:06.241Z,26.77
2018-01-11T01:28:34.228Z,29.17
2018-01-11T01:31:02.788Z,30.73
2018-01-11T01:33:30.777Z,29.47
2018-01-11T01:35:58.707Z,27.00
2018-01-11T01:38:26.609Z,31.23
2018-01-11T01:40:54.557Z,29.60
2018-01-11T01:43:22.536Z,29.60
2018-01-11T01:45:50.545Z,30.13
2018-01-11T01:48:18.474Z,30.57
2018-01-11T01:50:46.619Z,31.50
2018-01-11T01:53:14.535Z,26.67
2018-01-11T01:55:42.461Z,27.23
2018-01-11T01:58:10.402Z,25.90
2018-01-11T02:00:38.347Z,30.50
2018-01-11T02:03:06.397Z,30.50
2018-01-11T02:05:34.289Z,33.97
2018-01-11T02:08:02.316Z,34.03
2018-01-11T02:10:33.013Z,41.20
2018-01-11T02:13:02.172Z,35.07
2018-01-11T02:15:31.976Z,33.77
2018-01-11T02:18:00.409Z,43.07
2018-01-11T02:20:30.244Z,37.63
2018-01-11T02:23:00.019Z,41.00
2018-01-11T02:25:28.152Z,38.28
2018-01-11T02:27:57.150Z,39.47
2018-01-11T02:30:27.540Z,47.33
2018-01-11T02:32:55.476Z,45.67
2018-01-11T02:35:23.486Z,36.83
2018-01-11T02:37:51.566Z,44.45
2018-01-11T02:40:19.498Z,41.27
2018-01-11T02:42:47.426Z,39.95
2018-01-11T02:45:15.430Z,36.07
2018-01-11T02:47:43.356Z,39.33
2018-01-11T02:50:11.393Z,47.33
2018-01-11T02:52:39.506Z,37.35
2018-01-11T02:55:10.089Z,43.93
2018-01-11T02:57:38.201Z,36.50
2018-01-11T03:00:06.705Z,37.43
2018-01-11T03:02:37.757Z,38.28
2018-01-11T03:05:05.758Z,37.03
2018-01-11T03:07:33.782Z,40.17
2018-01-11T03:10:02.622Z,40.10
2018-01-11T03:12:30.561Z,48.40
2018-01-11T03:14:59.013Z,43.50
2018-01-11T03:17:27.024Z,39.72
2018-01-11T03:19:55.009Z,38.30
2018-01-11T03:22:22.934Z,40.63
2018-01-11T03:24:51.021Z,41.03
2018-01-11T03:27:18.937Z,48.77
2018-01-11T03:29:47.061Z,39.23
2018-01-11T03:32:14.982Z,41.87
2018-01-11T03:34:43.791Z,39.73
2018-01-11T03:37:12.889Z,42.77
2018-01-11T03:39:42.929Z,48.60
2018-01-11T03:42:12.716Z,44.80
2018-01-11T03:44:40.837Z,43.20
2018-01-11T03:47:08.877Z,41.20
2018-01-11T03:49:36.794Z,44.87
2018-01-11T03:52:06.326Z,46.67
2018-01-11T03:54:35.357Z,45.27
2018-01-11T03:57:03.692Z,39.85
2018-01-11T03:59:31.722Z,47.70
2018-01-11T04:02:01.290Z,42.58
2018-01-11T04:04:29.225Z,37.33
2018-01-11T04:06:57.166Z,40.13
2018-01-11T04:09:25.081Z,40.57
2018-01-11T04:11:53.000Z,46.80
2018-01-11T04:14:20.950Z,46.00
2018-01-11T04:16:48.916Z,37.50
2018-01-11T04:19:16.844Z,35.97
2018-01-11T04:21:44.816Z,40.10
2018-01-11T04:24:12.745Z,41.30
2018-01-11T04:26:40.682Z,42.03
2018-01-11T04:29:08.620Z,40.57
2018-01-11T04:31:36.609Z,38.27
2018-01-11T04:34:05.527Z,44.63
2018-01-11T04:36:33.449Z,35.10
2018-01-11T04:39:01.394Z,44.33
2018-01-11T04:41:29.469Z,40.17
2018-01-11T04:43:57.384Z,52.73
2018-01-11T04:46:25.356Z,50.67
2018-01-11T04:48:53.266Z,48.57
2018-01-11T04:51:21.217Z,44.20
2018-01-11T04:53:49.132Z,42.70
2018-01-11T04:56:17.078Z,43.80
2018-01-11T04:58:45.022Z,42.37
2018-01-11T05:01:13.001Z,46.87
2018-01-11T05:03:40.957Z,47.67
2018-01-11T05:06:08.926Z,47.13
2018-01-11T05:08:36.875Z,45.13
2018-01-11T05:11:04.793Z,45.00
2018-01-11T05:13:33.169Z,47.03
2018-01-11T05:16:01.119Z,52.37
2018-01-11T05:18:29.032Z,44.00
2018-01-11T05:20:56.945Z,53.77
2018-01-11T05:23:24.869Z,43.70
2018-01-11T05:25:52.915Z,45.70
2018-01-11T05:28:20.861Z,45.20
2018-01-11T05:30:48.910Z,49.10
2018-01-11T05:33:16.821Z,58.77
2018-01-11T05:35:44.785Z,50.87
2018-01-11T05:38:13.307Z,56.10
2018-01-11T05:40:41.302Z,52.17
2018-01-11T05:43:09.282Z,60.70
2018-01-11T05:45:37.178Z,56.23
2018-01-11T05:48:05.106Z,46.77
2018-01-11T05:50:33.026Z,47.23
2018-01-11T05:53:01.014Z,46.80
2018-01-11T05:55:29.162Z,48.80
2018-01-11T05:57:57.059Z,51.60
2018-01-11T06:00:25.160Z,42.73
2018-01-11T06:02:53.070Z,41.90
2018-01-11T06:05:21.010Z,49.93
2018-01-11T06:07:48.944Z,50.20
2018-01-11T06:10:16.874Z,48.03
2018-01-11T06:12:44.818Z,46.97
2018-01-11T06:15:12.747Z,50.37
2018-01-11T06:17:40.673Z,50.67
2018-01-11T06:20:08.601Z,47.50
2018-01-11T06:22:36.680Z,46.40
2018-01-11T06:25:04.590Z,47.97
2018-01-11T06:27:32.551Z,43.50
2018-01-11T06:30:00.473Z,45.23
2018-01-11T06:32:28.438Z,45.07
2018-01-11T06:34:56.361Z,45.93
2018-01-11T06:37:24.290Z,58.40
2018-01-11T06:39:52.242Z,53.27
2018-01-11T06:42:20.565Z,46.20
2018-01-11T06:44:48.498Z,46.97
2018-01-11T06:47:16.547Z,51.63
2018-01-11T06:49:44.541Z,50.30
2018-01-11T06:52:12.505Z,50.13
2018-01-11T06:54:40.552Z,48.23
2018-01-11T06:57:08.486Z,45.17
2018-01-11T06:59:36.397Z,48.03
2018-01-11T07:02:04.349Z,40.37
2018-01-11T07:04:32.273Z,46.23
2018-01-11T07:07:00.194Z,38.37
2018-01-11T07:09:28.138Z,45.30
2018-01-11T07:11:56.054Z,52.30
2018-01-11T07:14:24.011Z,42.63
2018-01-11T07:16:51.946Z,47.23
2018-01-11T07:19:19.887Z,46.30
2018-01-11T07:21:47.808Z,46.03
2018-01-11T07:24:15.738Z,48.83
2018-01-11T07:26:43.655Z,46.90
2018-01-11T07:29:11.638Z,51.90
2018-01-11T07:31:39.613Z,45.40
2018-01-11T07:34:07.544Z,52.70
2018-01-11T07:36:35.446Z,50.83
2018-01-11T07:39:03.397Z,54.47
2018-01-11T07:41:31.319Z,48.13
2018-01-11T07:43:59.254Z,55.67
2018-01-11T07:46:27.166Z,52.57
2018-01-11T07:48:55.093Z,49.93
2018-01-11T07:51:23.671Z,47.97
2018-01-11T07:53:51.648Z,50.67
2018-01-11T07:56:19.572Z,44.73
2018-01-11T07:58:47.515Z,53.25
2018-01-11T08:01:15.435Z,85.63
2018-01-11T08:03:43.424Z,155.20
2018-01-11T08:06:11.366Z,90.33
2018-01-11T08:08:39.277Z,47.07
2018-01-11T08:11:07.190Z,43.73
2018-01-11T08:13:35.213Z,42.17
2018-01-11T08:16:03.113Z,43.67
2018-01-11T08:18:31.213Z,37.30
2018-01-11T08:20:59.147Z,46.07
2018-01-11T08:23:27.677Z,38.77
2018-01-11T08:25:55.594Z,41.10
2018-01-11T08:28:23.552Z,49.63
2018-01-11T08:30:51.476Z,45.33
2018-01-11T08:33:19.405Z,46.57
2018-01-11T08:35:47.329Z,46.63
2018-01-11T08:38:15.273Z,48.13
2018-01-11T08:43:17.513Z,54.33
2018-01-11T08:45:45.418Z,42.90
2018-01-11T08:48:13.324Z,43.27
2018-01-11T08:50:41.287Z,59.77
2018-01-11T08:53:09.211Z,49.03
2018-01-11T08:55:37.161Z,51.87
2018-01-11T08:58:05.105Z,58.70
2018-01-11T09:00:33.021Z,55.67
2018-01-11T09:03:00.996Z,51.23
2018-01-11T09:05:28.925Z,52.13
2018-01-11T09:07:56.888Z,55.33
2018-01-11T09:10:24.892Z,49.27
2018-01-11T09:12:52.843Z,52.20
2018-01-11T09:15:21.156Z,55.93
2018-01-11T09:17:50.004Z,47.43
2018-01-11T09:20:17.974Z,59.10
2018-01-11T09:22:46.042Z,52.83
2018-01-11T09:25:13.963Z,50.63
2018-01-11T09:27:42.568Z,57.60
2018-01-11T09:30:10.522Z,58.47
2018-01-11T09:32:38.449Z,61.90
2018-01-11T09:35:06.464Z,66.53
2018-01-11T09:37:34.394Z,68.13
2018-01-11T09:40:02.430Z,60.53
2018-01-11T09:42:30.622Z,60.33
2018-01-11T09:44:58.589Z,58.63
2018-01-11T09:47:26.617Z,64.40
2018-01-11T09:49:54.933Z,63.77
2018-01-11T09:52:23.526Z,58.97
2018-01-11T09:54:51.499Z,67.07
2018-01-11T09:57:20.644Z,70.30
2018-01-11T09:59:48.585Z,71.17
2018-01-11T10:02:16.549Z,62.73
2018-01-11T10:04:44.526Z,64.93
2018-01-11T10:07:12.446Z,63.37
2018-01-11T10:09:40.387Z,73.93
2018-01-11T10:12:08.329Z,72.20
2018-01-11T10:14:36.254Z,67.27
2018-01-11T10:17:04.222Z,79.13
2018-01-11T10:19:32.160Z,79.17
2018-01-11T10:22:00.140Z,73.20
2018-01-11T10:24:28.405Z,71.27
2018-01-11T10:26:56.470Z,70.67
2018-01-11T10:29:24.665Z,69.93
2018-01-11T10:31:52.642Z,77.63
2018-01-11T10:34:20.556Z,77.83
2018-01-11T10:36:48.489Z,73.90
2018-01-11T10:39:16.407Z,79.93
2018-01-11T10:41:44.383Z,76.73
2018-01-11T10:44:12.520Z,68.23
2018-01-11T10:46:40.417Z,74.63
2018-01-11T10:49:08.420Z,73.33
2018-01-11T10:51:36.435Z,71.00
2018-01-11T10:54:05.550Z,64.40
2018-01-11T10:56:33.546Z,69.13
2018-01-11T10:59:02.438Z,71.30
2018-01-11T11:01:36.053Z,76.10
2018-01-11T11:04:03.992Z,73.07
2018-01-11T11:06:32.276Z,68.30
2018-01-11T11:09:00.253Z,70.63
2018-01-11T11:11:28.201Z,72.60
2018-01-11T11:13:56.986Z,70.80
2018-01-11T11:16:24.959Z,74.43
2018-01-11T11:18:52.922Z,66.70
2018-01-11T11:21:21.145Z,70.17
2018-01-11T11:23:49.133Z,72.13
2018-01-11T11:26:17.106Z,68.60
2018-01-11T11:28:45.041Z,64.10
2018-01-11T11:31:13.135Z,67.30
2018-01-11T11:33:41.108Z,150.40
2018-01-11T11:36:09.597Z,163.93
2018-01-11T11:38:37.709Z,237.73
2018-01-11T11:41:05.722Z,92.10
2018-01-11T11:43:33.664Z,67.07
2018-01-11T11:46:01.690Z,64.60
2018-01-11T11:48:29.598Z,65.43
2018-01-11T11:50:57.526Z,69.50
2018-01-11T11:53:25.768Z,62.87
2018-01-11T11:55:53.716Z,67.23
2018-01-11T11:58:21.629Z,57.47
2018-01-11T12:00:49.638Z,62.77
2018-01-11T12:03:17.553Z,70.07
2018-01-11T12:05:45.468Z,59.30
2018-01-11T12:08:13.418Z,55.00
2018-01-11T12:10:41.519Z,55.20
2018-01-11T12:13:09.439Z,59.37
2018-01-11T12:15:37.538Z,54.07
2018-01-11T12:18:05.495Z,54.47
2018-01-11T12:20:33.455Z,46.67
2018-01-11T12:23:01.364Z,47.93
2018-01-11T12:25:29.302Z,46.37
2018-01-11T12:27:57.505Z,49.17
2018-01-11T12:30:26.163Z,50.83
2018-01-11T12:32:54.135Z,45.93
2018-01-11T12:35:22.087Z,38.83
2018-01-11T12:37:50.318Z,40.37
2018-01-11T12:40:18.278Z,40.90
2018-01-11T12:42:46.314Z,36.50
2018-01-11T12:45:14.273Z,38.73
2018-01-11T12:47:42.203Z,36.70
2018-01-11T12:50:10.355Z,36.33
2018-01-11T12:52:38.290Z,35.70
2018-01-11T12:55:06.433Z,30.50
2018-01-11T12:57:34.464Z,28.90
2018-01-11T13:00:02.597Z,33.40
2018-01-11T13:02:30.582Z,30.67
2018-01-11T13:04:58.620Z,28.40
2018-01-11T13:07:26.708Z,27.73
2018-01-11T13:09:55.617Z,28.63
2018-01-11T13:12:23.649Z,28.57
2018-01-11T13:14:51.700Z,27.33
2018-01-11T13:17:19.665Z,29.97
2018-01-11T13:19:47.742Z,29.93
2018-01-11T13:22:15.823Z,30.10
2018-01-11T13:24:43.844Z,24.80
2018-01-11T13:27:11.809Z,27.87
2018-01-11T13:29:39.890Z,26.53
2018-01-11T13:32:07.957Z,23.17
2018-01-11T13:34:35.940Z,25.67
2018-01-11T13:37:03.853Z,24.03
2018-01-11T13:39:31.817Z,26.93
2018-01-11T13:41:59.798Z,30.17
2018-01-11T13:44:27.731Z,23.07
2018-01-11T13:46:56.484Z,22.37
2018-01-11T13:49:24.479Z,23.53
2018-01-11T13:51:52.589Z,18.53
2018-01-11T13:54:20.684Z,21.00
2018-01-11T13:56:48.619Z,20.43
2018-01-11T13:59:16.662Z,19.00
2018-01-11T14:01:44.611Z,20.50
2018-01-11T14:04:12.533Z,25.60
2018-01-11T14:06:41.472Z,23.27
2018-01-11T14:09:09.480Z,20.33
2018-01-11T14:11:37.405Z,19.50
2018-01-11T14:14:05.995Z,20.30
2018-01-11T14:16:33.919Z,19.83
2018-01-11T14:19:01.840Z,18.70
2018-01-11T14:21:30.152Z,21.03
2018-01-11T14:23:58.250Z,21.13
2018-01-11T14:26:26.401Z,22.23
2018-01-11T14:28:54.302Z,19.50
2018-01-11T14:31:22.268Z,18.50
2018-01-11T14:33:50.228Z,17.90
2018-01-11T14:36:18.396Z,19.63
2018-01-11T14:38:46.700Z,19.23
2018-01-11T14:41:14.599Z,22.00
2018-01-11T14:43:42.563Z,22.87
2018-01-11T14:46:10.797Z,26.10
2018-01-11T14:48:38.875Z,26.33
2018-01-11T14:51:06.793Z,85.73
2018-01-11T14:53:35.205Z,94.13
2018-01-11T14:56:03.416Z,54.07
2018-01-11T14:58:31.618Z,68.50
2018-01-11T15:00:59.555Z,62.20
2018-01-11T15:03:27.817Z,109.33
2018-01-11T15:05:55.792Z,86.60
2018-01-11T15:08:23.777Z,95.27
2018-01-11T15:10:51.729Z,91.60
2018-01-11T15:13:19.983Z,71.23
2018-01-11T15:15:48.254Z,43.60
2018-01-11T15:18:16.153Z,54.60
2018-01-11T15:20:44.136Z,47.20
2018-01-11T15:23:12.083Z,45.07
2018-01-11T15:25:40.041Z,37.80
2018-01-11T15:28:08.031Z,33.60
2018-01-11T15:30:36.067Z,36.70
2018-01-11T15:33:04.003Z,37.00
2018-01-11T15:35:31.970Z,33.03
2018-01-11T15:38:00.045Z,38.97
2018-01-11T15:40:27.981Z,42.50
2018-01-11T15:42:56.696Z,38.90
2018-01-11T15:45:24.680Z,40.67
2018-01-11T15:47:52.641Z,38.37
2018-01-11T15:50:20.565Z,39.60
2018-01-11T15:52:48.542Z,70.30
2018-01-11T15:55:16.449Z,63.20
2018-01-11T15:57:44.456Z,70.90
2018-01-11T16:00:12.453Z,94.67
2018-01-11T16:02:40.498Z,51.03
2018-01-11T16:05:08.480Z,49.37
2018-01-11T16:07:36.468Z,98.57
2018-01-11T16:10:04.443Z,114.63
2018-01-11T16:12:32.381Z,66.07
2018-01-11T16:15:00.306Z,71.10
2018-01-11T16:17:28.236Z,71.27
2018-01-11T16:19:56.347Z,51.57
2018-01-11T16:22:24.273Z,70.03
2018-01-11T16:24:52.215Z,32.63
2018-01-11T16:27:20.380Z,25.63
2018-01-11T16:29:48.308Z,27.80
2018-01-11T16:32:16.307Z,29.87
2018-01-11T16:34:44.324Z,28.07
2018-01-11T16:37:12.307Z,31.93
2018-01-11T16:39:40.569Z,27.77
2018-01-11T16:42:08.604Z,26.73
2018-01-11T16:44:36.726Z,30.50
2018-01-11T16:47:04.847Z,25.30
2018-01-11T16:49:32.847Z,28.00
2018-01-11T16:52:00.860Z,44.13
2018-01-11T16:54:28.830Z,333.03
2018-01-11T16:56:57.609Z,68.70
2018-01-11T16:59:25.539Z,28.10
2018-01-11T17:01:53.474Z,28.03
2018-01-11T17:04:22.373Z,30.13
2018-01-11T17:06:50.304Z,29.33
2018-01-11T17:09:18.339Z,31.10
2018-01-11T17:11:46.250Z,41.23
2018-01-11T17:14:14.275Z,36.93
2018-01-11T17:16:42.163Z,37.03
2018-01-11T17:19:10.133Z,43.43
2018-01-11T17:21:38.161Z,43.00
2018-01-11T17:24:06.180Z,43.37
2018-01-11T17:26:34.333Z,47.57
2018-01-11T17:29:02.333Z,37.40
2018-01-11T17:31:30.365Z,45.97
2018-01-11T17:33:59.685Z,40.57
2018-01-11T17:36:27.845Z,28.93
2018-01-11T17:38:55.888Z,33.33
2018-01-11T17:41:23.785Z,32.77
2018-01-11T17:43:51.749Z,32.80
2018-01-11T17:46:19.779Z,31.77
2018-01-11T17:48:47.710Z,37.53
2018-01-11T17:51:15.657Z,32.77
2018-01-11T17:53:43.626Z,37.43
2018-01-11T17:56:13.337Z,35.47
2018-01-11T17:58:41.555Z,37.17
2018-01-11T18:01:09.538Z,40.60
2018-01-11T18:03:37.555Z,44.73
2018-01-11T18:06:05.564Z,40.97
2018-01-11T18:08:33.507Z,46.13
2018-01-11T18:11:01.697Z,45.37
2018-01-11T18:13:29.587Z,44.57
2018-01-11T18:15:57.519Z,49.27
2018-01-11T18:18:25.521Z,52.13
2018-01-11T18:20:53.792Z,52.63
2018-01-11T18:23:22.532Z,59.13
2018-01-11T18:25:50.451Z,57.80
2018-01-11T18:28:18.419Z,64.53
2018-01-11T18:30:46.363Z,69.07
2018-01-11T18:33:14.338Z,63.43
2018-01-11T18:35:42.294Z,75.47
2018-01-11T18:38:10.261Z,80.43
2018-01-11T18:40:38.196Z,81.00
2018-01-11T18:43:06.152Z,83.40
2018-01-11T18:45:34.108Z,83.40
2018-01-11T18:48:02.247Z,81.80
2018-01-11T18:50:30.178Z,77.73
2018-01-11T18:52:58.122Z,78.43
2018-01-11T18:55:26.154Z,82.07
2018-01-11T18:57:54.216Z,80.70
2018-01-11T19:00:22.180Z,79.73
2018-01-11T19:02:50.094Z,129.87
2018-01-11T19:05:18.086Z,229.77
2018-01-11T19:07:46.036Z,253.83
2018-01-11T19:10:14.023Z,95.07
2018-01-11T19:12:41.966Z,81.77
2018-01-11T19:15:09.967Z,88.17
2018-01-11T19:17:37.925Z,82.47
2018-01-11T19:20:05.993Z,93.20
2018-01-11T19:22:34.065Z,89.30
2018-01-11T19:25:02.045Z,93.90
2018-01-11T19:27:29.995Z,101.67
2018-01-11T19:29:57.997Z,102.70
2018-01-11T19:32:26.107Z,100.03
2018-01-11T19:34:54.083Z,99.43
2018-01-11T19:37:22.085Z,102.00
2018-01-11T19:39:50.036Z,95.27
2018-01-11T19:42:18.406Z,107.37
2018-01-11T19:44:46.360Z,97.23
2018-01-11T19:47:14.318Z,109.40
2018-01-11T19:49:42.363Z,116.37
2018-01-11T19:52:10.332Z,103.60
2018-01-11T19:54:38.258Z,105.60
2018-01-11T19:57:07.089Z,110.03
2018-01-11T19:59:35.197Z,109.73
2018-01-11T20:02:04.334Z,116.87
2018-01-11T20:04:32.380Z,111.33
2018-01-11T20:07:00.340Z,106.13
2018-01-11T20:09:28.259Z,122.80
2018-01-11T20:11:56.224Z,124.60
2018-01-11T20:14:24.626Z,123.47
2018-01-11T20:16:52.585Z,127.20
2018-01-11T20:19:20.513Z,117.90
2018-01-11T20:21:48.514Z,113.10
2018-01-11T20:24:16.451Z,122.73
2018-01-11T20:26:44.450Z,112.90
2018-01-11T20:29:12.394Z,118.43
2018-01-11T20:31:40.418Z,117.63
2018-01-11T20:34:08.387Z,118.50
2018-01-11T20:36:36.411Z,119.53
2018-01-11T20:39:04.339Z,115.57
2018-01-11T20:41:32.305Z,126.03
2018-01-11T20:44:00.223Z,127.00
2018-01-11T20:46:28.275Z,126.67
2018-01-11T20:48:56.226Z,125.50
2018-01-11T20:51:24.217Z,129.17
2018-01-11T20:53:52.223Z,135.97
2018-01-11T20:56:20.162Z,126.23
2018-01-11T20:58:48.187Z,151.97
2018-01-11T21:01:16.126Z,190.90
2018-01-11T21:03:44.094Z,195.33
2018-01-11T21:06:12.033Z,197.53
2018-01-11T21:08:40.011Z,152.53
2018-01-11T21:11:07.945Z,152.53
2018-01-11T21:13:35.873Z,150.00
2018-01-11T21:16:03.897Z,141.40
2018-01-11T21:18:31.934Z,143.63
2018-01-11T21:20:59.941Z,153.67
2018-01-11T21:23:27.886Z,137.83
2018-01-11T21:25:55.823Z,149.67
2018-01-11T21:28:24.583Z,133.77
2018-01-11T21:30:52.494Z,149.93
2018-01-11T21:33:20.513Z,153.60
2018-01-11T21:35:48.432Z,155.60
2018-01-11T21:38:16.370Z,161.73
2018-01-11T21:40:44.318Z,153.27
2018-01-11T21:43:12.343Z,160.40
2018-01-11T21:45:40.263Z,158.80
2018-01-11T21:48:08.216Z,157.87
2018-01-11T21:50:36.345Z,170.10
2018-01-11T21:53:04.246Z,159.57
2018-01-11T21:55:32.968Z,154.77
2018-01-11T21:58:00.897Z,161.70
2018-01-11T22:00:28.826Z,140.93
2018-01-11T22:02:56.764Z,163.13
2018-01-11T22:05:24.849Z,151.80
2018-01-11T22:07:52.799Z,147.53
2018-01-11T22:10:20.726Z,150.20
2018-01-11T22:12:48.662Z,153.20
2018-01-11T22:15:16.608Z,136.27
2018-01-11T22:17:44.601Z,153.77
2018-01-11T22:20:13.041Z,140.73
2018-01-11T22:22:40.990Z,144.53
2018-01-11T22:25:10.324Z,150.93
2018-01-11T22:27:38.230Z,136.90
2018-01-11T22:30:06.186Z,144.23
2018-01-11T22:32:34.098Z,126.47
2018-01-11T22:35:02.039Z,142.10
2018-01-11T22:37:29.969Z,134.97
2018-01-11T22:39:58.021Z,131.57
2018-01-11T22:42:25.955Z,133.27
2018-01-11T22:44:54.185Z,122.03
2018-01-11T22:47:22.116Z,134.57
2018-01-11T22:49:50.057Z,133.57
2018-01-11T22:52:18.325Z,135.90
2018-01-11T22:54:46.237Z,136.23
2018-01-11T22:57:14.254Z,166.50
2018-01-11T22:59:42.205Z,129.77
2018-01-11T23:02:10.299Z,115.40
2018-01-11T23:04:38.223Z,137.73
2018-01-11T23:07:06.220Z,116.80
2018-01-11T23:09:35.656Z,129.23
2018-01-11T23:12:03.641Z,130.73
2018-01-11T23:14:31.597Z,121.53
2018-01-11T23:16:59.526Z,137.63
2018-01-11T23:19:27.530Z,125.57
2018-01-11T23:21:55.481Z,128.27
2018-01-11T23:24:23.405Z,132.50
2018-01-11T23:26:51.361Z,139.53
2018-01-11T23:29:19.332Z,132.13
2018-01-11T23:31:47.294Z,124.03
2018-01-11T23:34:15.249Z,134.00
2018-01-11T23:36:43.197Z,124.00
2018-01-11T23:39:11.123Z,114.87
2018-01-11T23:41:39.054Z,128.17
2018-01-11T23:44:06.974Z,135.67
2018-01-11T23:46:34.910Z,122.17
2018-01-11T23:49:02.921Z,133.77
2018-01-11T23:51:30.918Z,118.97
2018-01-11T23:53:58.854Z,115.40
2018-01-11T23:56:26.839Z,119.87
2018-01-11T23:58:54.746Z,115.50
